Time;durP1;ratioP1;P1;durP2;ratioP2;P2;SDS_P1;SDS_P2;PMS_P1;PMS_P2;Temp;Humidity;BMP_temperature;BMP_pressure;BME280_temperature;BME280_humidity;BME280_pressure;Samples;Min_cycle;Max_cycle;Signal;HPM_P1;HPM_P2
2023/06/27 00:01:04;;;;;;;22.55;20.95;;;;;;;24.14;63.80;99855.72;5014062;28;96979;-72
2023/06/27 00:03:31;;;;;;;21.27;19.88;;;;;;;24.12;64.00;99849.69;5011951;28;98258;-72
2023/06/27 00:06:00;;;;;;;22.33;20.67;;;;;;;24.12;64.21;99855.06;5016298;28;98719;-72
2023/06/27 00:08:27;;;;;;;22.15;20.50;;;;;;;24.13;63.92;99857.56;5012344;28;97867;-72
2023/06/27 00:10:53;;;;;;;21.92;20.38;;;;;;;24.11;64.37;99856.88;5018499;28;97213;-72
2023/06/27 00:13:20;;;;;;;22.95;21.25;;;;;;;24.01;64.45;99858.78;5027652;28;98603;-72
2023/06/27 00:15:48;;;;;;;21.95;20.35;;;;;;;24.00;63.93;99865.16;5025981;28;97571;-72
2023/06/27 00:18:17;;;;;;;22.08;20.48;;;;;;;24.00;64.19;99867.81;5021419;28;96707;-72
2023/06/27 00:20:43;;;;;;;21.67;20.05;;;;;;;23.89;64.18;99868.84;5025367;28;97186;-72
2023/06/27 00:23:19;;;;;;;22.23;20.63;;;;;;;23.82;64.23;99873.09;4988773;28;98565;-72
2023/06/27 00:25:46;;;;;;;21.85;20.15;;;;;;;23.83;64.01;99871.31;5011510;28;98404;-72
2023/06/27 00:28:11;;;;;;;21.52;20.05;;;;;;;23.85;64.02;99872.84;5013856;28;96838;-72
2023/06/27 00:30:37;;;;;;;23.08;21.48;;;;;;;23.79;64.10;99880.59;5015226;28;97839;-72
2023/06/27 00:33:02;;;;;;;20.98;19.52;;;;;;;23.84;63.82;99881.00;5014707;28;98606;-72
2023/06/27 00:35:33;;;;;;;20.98;19.38;;;;;;;23.78;63.69;99879.78;5019331;28;97202;-72
2023/06/27 00:38:00;;;;;;;21.33;19.83;;;;;;;23.81;63.65;99878.63;5017907;28;97269;-74
2023/06/27 00:40:26;;;;;;;22.50;20.90;;;;;;;23.71;63.98;99881.38;4999478;28;96904;-74
2023/06/27 00:42:51;;;;;;;21.23;19.50;;;;;;;23.76;63.88;99888.94;4997905;28;100784;-74
2023/06/27 00:45:18;;;;;;;21.40;19.85;;;;;;;23.71;64.32;99889.41;5015637;28;98483;-75
2023/06/27 00:47:43;;;;;;;22.73;20.73;;;;;;;23.69;64.13;99894.84;5025163;28;96934;-74
2023/06/27 00:50:09;;;;;;;23.10;21.20;;;;;;;23.53;64.48;99899.13;5028304;28;96743;-74
2023/06/27 00:52:36;;;;;;;22.48;20.80;;;;;;;23.54;64.37;99895.50;5011039;28;100520;-72
2023/06/27 00:55:03;;;;;;;21.63;20.02;;;;;;;23.54;63.99;99890.13;5025448;28;98235;-72
2023/06/27 00:57:29;;;;;;;22.33;20.42;;;;;;;23.36;64.51;99893.56;4989715;28;97953;-72
2023/06/27 00:59:55;;;;;;;22.13;20.38;;;;;;;23.31;64.18;99895.00;5011403;28;97265;-72
2023/06/27 01:02:23;;;;;;;22.40;20.48;;;;;;;23.36;64.07;99904.28;4993935;28;98719;-72
2023/06/27 01:04:51;;;;;;;21.73;19.92;;;;;;;23.39;63.26;99903.16;4983235;28;100147;-72
2023/06/27 01:07:25;;;;;;;21.35;19.65;;;;;;;23.36;63.20;99900.72;5015695;28;96708;-72
2023/06/27 01:09:55;;;;;;;21.35;19.70;;;;;;;23.38;63.07;99901.44;5012964;28;97372;-72
2023/06/27 01:12:28;;;;;;;;;;;;;;;23.30;63.64;99914.69;4997091;28;97462;-72
2023/06/27 01:14:57;;;;;;;21.02;19.33;;;;;;;23.32;63.34;99908.22;5002980;28;98640;-72
2023/06/27 01:17:24;;;;;;;21.52;19.77;;;;;;;23.33;63.41;99917.97;4993320;28;97432;-72
2023/06/27 01:19:52;;;;;;;21.23;19.73;;;;;;;23.29;63.49;99913.84;5017415;28;96893;-72
2023/06/27 01:22:29;;;;;;;22.30;20.13;;;;;;;23.18;63.84;99901.47;5006690;28;98731;-72
2023/06/27 01:24:56;;;;;;;21.40;19.75;;;;;;;23.22;63.41;99918.13;5012489;28;97134;-72
2023/06/27 01:27:22;;;;;;;21.27;19.50;;;;;;;23.15;63.55;99919.66;4979044;28;97321;-72
2023/06/27 01:29:48;;;;;;;21.33;19.60;;;;;;;23.17;63.35;99923.03;4993847;28;96835;-72
2023/06/27 01:32:26;;;;;;;21.70;19.98;;;;;;;23.11;63.15;99916.44;5015372;28;99221;-72
2023/06/27 01:35:10;;;;;;;24.15;21.95;;;;;;;23.07;63.23;99922.19;4987940;28;98313;-72
2023/06/27 01:37:43;;;;;;;22.38;20.65;;;;;;;23.06;63.25;99924.03;4997026;28;97177;-72
2023/06/27 01:40:11;;;;;;;22.60;20.50;;;;;;;23.04;63.07;99924.19;5000934;28;96673;-72
2023/06/27 01:42:47;;;;;;;21.58;19.90;;;;;;;23.01;62.91;99920.97;4986081;28;100740;-72
2023/06/27 01:45:14;;;;;;;21.98;20.23;;;;;;;22.98;62.96;99918.53;5015526;28;98636;-72
2023/06/27 01:47:42;;;;;;;22.08;19.95;;;;;;;22.99;62.74;99923.75;5005846;28;96821;-72
2023/06/27 01:50:09;;;;;;;20.98;19.38;;;;;;;22.98;62.80;99923.88;5008384;28;96837;-72
2023/06/27 01:52:35;;;;;;;22.40;20.20;;;;;;;22.97;63.19;99925.72;5012513;28;97578;-71
2023/06/27 01:55:01;;;;;;;22.00;20.30;;;;;;;22.96;63.24;99928.56;5014524;28;98718;-72
2023/06/27 01:57:26;;;;;;;22.83;20.73;;;;;;;22.94;63.11;99931.31;5029912;28;96717;-72
2023/06/27 01:59:52;;;;;;;23.25;20.73;;;;;;;22.97;63.23;99936.44;5013504;28;96868;-72
2023/06/27 02:02:19;;;;;;;22.65;20.83;;;;;;;22.94;63.20;99931.31;5011539;28;98669;-72
2023/06/27 02:04:46;;;;;;;23.73;21.48;;;;;;;22.96;63.69;99941.94;5014670;28;98307;-72
2023/06/27 02:07:11;;;;;;;27.88;20.58;;;;;;;22.93;63.58;99937.69;5013754;28;97240;-71
2023/06/27 02:09:40;;;;;;;22.13;20.05;;;;;;;22.94;63.53;99942.03;4994163;28;96805;-72
2023/06/27 02:12:09;;;;;;;21.92;20.10;;;;;;;22.94;63.69;99933.16;5009986;28;99166;-72
2023/06/27 02:14:34;;;;;;;22.60;20.33;;;;;;;22.87;63.86;99927.53;5006535;28;98251;-72
2023/06/27 02:17:00;;;;;;;23.33;21.27;;;;;;;22.90;63.75;99929.94;5003821;28;96892;-72
2023/06/27 02:19:25;;;;;;;23.75;21.52;;;;;;;22.90;63.95;99924.59;5027583;28;97177;-71
2023/06/27 02:21:52;;;;;;;22.83;20.67;;;;;;;22.88;64.22;99929.22;5026424;28;98912;-72
2023/06/27 02:24:17;;;;;;;21.52;19.60;;;;;;;22.85;64.42;99931.34;5029021;28;98249;-71
2023/06/27 02:26:43;;;;;;;22.48;20.42;;;;;;;22.85;64.49;99936.69;5018750;28;100455;-72
2023/06/27 02:29:09;;;;;;;22.77;20.55;;;;;;;22.82;64.44;99929.78;5018059;28;96935;-72
2023/06/27 02:31:36;;;;;;;23.00;20.63;;;;;;;22.79;64.48;99932.75;5019351;28;100730;-72
2023/06/27 02:34:01;;;;;;;22.67;20.60;;;;;;;22.83;64.41;99936.81;5014302;28;98448;-71
2023/06/27 02:36:27;;;;;;;22.20;20.25;;;;;;;22.83;64.37;99937.69;5015228;28;97062;-71
2023/06/27 02:38:55;;;;;;;22.98;20.77;;;;;;;22.81;64.47;99941.47;5019115;28;98079;-71
2023/06/27 02:41:22;;;;;;;22.58;20.35;;;;;;;22.77;64.68;99943.56;4998519;28;98588;-71
2023/06/27 02:43:47;;;;;;;23.15;21.23;;;;;;;22.75;64.65;99944.72;4993417;28;98517;-71
2023/06/27 02:46:13;;;;;;;24.30;22.08;;;;;;;22.75;64.69;99948.25;5019240;28;97076;-72
2023/06/27 02:48:38;;;;;;;23.30;21.08;;;;;;;22.73;64.60;99954.72;5025312;28;96852;-71
2023/06/27 02:51:04;;;;;;;23.58;21.25;;;;;;;22.74;64.78;99951.88;5004141;28;100669;-71
2023/06/27 02:53:29;;;;;;;23.35;21.10;;;;;;;22.73;64.99;99950.19;5008257;28;100214;-72
2023/06/27 02:55:57;;;;;;;23.70;21.25;;;;;;;22.71;64.94;99954.81;5026423;28;96769;-71
2023/06/27 02:58:24;;;;;;;22.90;21.02;;;;;;;22.70;64.90;99946.97;5029894;28;96879;-74
2023/06/27 03:00:50;;;;;;;24.35;21.90;;;;;;;22.63;64.98;99941.34;5010566;28;100243;-74
2023/06/27 03:03:17;;;;;;;22.85;20.90;;;;;;;22.69;64.93;99951.47;5011981;28;98874;-74
2023/06/27 03:05:43;;;;;;;23.27;21.40;;;;;;;22.69;64.88;99950.59;5032056;28;96728;-74
2023/06/27 03:08:08;;;;;;;24.15;21.92;;;;;;;22.64;65.15;99950.19;5011982;28;97073;-74
2023/06/27 03:10:34;;;;;;;25.25;23.05;;;;;;;22.61;65.37;99956.66;4996394;28;100499;-74
2023/06/27 03:12:59;;;;;;;23.67;21.67;;;;;;;22.57;65.47;99958.78;5016616;28;97263;-74
2023/06/27 03:15:25;;;;;;;24.02;21.50;;;;;;;22.57;65.42;99969.47;4998035;28;97109;-75
2023/06/27 03:17:51;;;;;;;24.48;22.42;;;;;;;22.49;65.37;99963.13;4993188;28;97500;-72
2023/06/27 03:20:18;;;;;;;24.10;21.98;;;;;;;22.54;65.38;99979.56;5021161;28;98980;-72
2023/06/27 03:22:44;;;;;;;22.92;21.05;;;;;;;22.52;65.28;99990.44;5010726;28;100012;-72
2023/06/27 03:25:10;;;;;;;24.60;22.23;;;;;;;22.53;65.24;99984.09;5009931;28;96979;-72
2023/06/27 03:27:37;;;;;;;24.27;21.58;;;;;;;22.46;65.06;99996.31;5011912;28;97271;-72
2023/06/27 03:30:04;;;;;;;23.27;21.13;;;;;;;22.44;64.07;99984.06;5031639;28;97383;-73
2023/06/27 03:32:29;;;;;;;21.73;19.90;;;;;;;22.46;63.30;99985.63;5013034;28;97305;-72
2023/06/27 03:34:55;;;;;;;21.55;19.90;;;;;;;22.38;62.28;99985.47;4969942;28;99941;-72
2023/06/27 03:37:21;;;;;;;22.05;20.00;;;;;;;22.35;61.45;99983.91;4996461;28;97315;-72
2023/06/27 03:39:46;;;;;;;20.38;18.80;;;;;;;22.41;61.35;99990.53;4997074;28;100377;-72
2023/06/27 03:42:15;;;;;;;20.90;19.20;;;;;;;22.43;61.52;99993.94;5001896;28;100205;-72
2023/06/27 03:44:40;;;;;;;21.05;19.23;;;;;;;22.42;61.23;99992.22;5014145;28;97082;-72
2023/06/27 03:47:06;;;;;;;20.70;18.95;;;;;;;22.45;61.62;99997.28;5023616;28;96953;-72
2023/06/27 03:49:32;;;;;;;21.58;19.70;;;;;;;22.40;61.71;99988.84;4993725;28;100312;-72
2023/06/27 03:51:57;;;;;;;21.70;19.65;;;;;;;22.36;62.09;99992.75;5004388;28;100642;-72
2023/06/27 03:54:23;;;;;;;22.65;20.80;;;;;;;22.34;62.29;100002.75;5001394;28;97303;-74
2023/06/27 03:56:48;;;;;;;22.23;20.33;;;;;;;22.39;62.35;100005.84;5021118;28;96815;-74
2023/06/27 03:59:14;;;;;;;21.75;19.90;;;;;;;22.34;62.39;100000.06;5005095;28;100229;-74
2023/06/27 04:01:41;;;;;;;21.90;20.02;;;;;;;22.29;62.56;99984.44;5017362;28;97367;-74
2023/06/27 04:04:10;;;;;;;23.27;21.25;;;;;;;22.39;62.38;99997.84;5006806;28;96863;-74
2023/06/27 04:06:35;;;;;;;22.10;19.90;;;;;;;22.31;62.05;99995.84;5024679;28;97134;-75
2023/06/27 04:09:03;;;;;;;22.05;20.10;;;;;;;22.34;61.93;99984.03;5004266;28;100778;-74
2023/06/27 04:11:29;;;;;;;22.90;20.67;;;;;;;22.32;61.84;99991.34;4996630;28;100466;-74
2023/06/27 04:13:56;;;;;;;21.67;19.67;;;;;;;22.33;61.64;99993.03;5020178;28;96862;-74
2023/06/27 04:16:22;;;;;;;22.38;20.45;;;;;;;22.34;61.87;99998.25;5007128;28;98766;-74
2023/06/27 04:18:48;;;;;;;22.63;20.40;;;;;;;22.26;61.43;99982.03;5003548;28;100782;-74
2023/06/27 04:21:14;;;;;;;23.30;20.35;;;;;;;22.28;61.82;100004.16;5023255;28;97119;-74
2023/06/27 04:23:39;;;;;;;22.77;20.80;;;;;;;22.35;61.29;100005.28;5014734;28;96900;-74
2023/06/27 04:26:07;;;;;;;23.20;21.02;;;;;;;22.41;61.05;100009.25;5018880;28;97202;-74
2023/06/27 04:28:34;;;;;;;23.75;21.33;;;;;;;22.48;60.85;100012.22;5019947;28;97513;-74
2023/06/27 04:31:01;;;;;;;21.80;19.88;;;;;;;22.43;60.68;99999.28;5021228;28;98332;-74
2023/06/27 04:33:30;;;;;;;24.02;21.48;;;;;;;22.49;60.65;100016.59;5012498;28;97093;-74
2023/06/27 04:36:02;;;;;;;22.13;20.17;;;;;;;22.51;60.62;100014.63;5010819;28;96866;-74
2023/06/27 04:38:37;;;;;;;23.08;20.95;;;;;;;22.53;60.58;100020.69;4995226;28;98708;-74
2023/06/27 04:41:12;;;;;;;20.75;19.25;;;;;;;22.50;60.47;100029.81;5014673;28;98256;-74
2023/06/27 04:43:39;;;;;;;21.73;19.88;;;;;;;22.52;60.58;100033.22;5013367;28;96862;-74
2023/06/27 04:46:04;;;;;;;22.58;20.55;;;;;;;22.51;60.91;100036.00;5014556;28;98107;-74
2023/06/27 04:48:30;;;;;;;22.30;20.10;;;;;;;22.54;60.61;100031.25;5020045;28;98614;-74
2023/06/27 04:50:56;;;;;;;21.77;19.88;;;;;;;22.56;60.36;100028.44;5017699;28;98787;-74
2023/06/27 04:53:22;;;;;;;22.20;20.30;;;;;;;22.60;60.15;100033.41;5018432;28;98216;-72
2023/06/27 04:55:48;;;;;;;23.02;21.10;;;;;;;22.66;59.88;100033.81;5021184;28;96875;-72
2023/06/27 04:58:17;;;;;;;21.30;19.50;;;;;;;22.68;60.11;100042.53;5024520;28;99319;-72
2023/06/27 05:00:44;;;;;;;22.10;19.95;;;;;;;22.72;59.67;100041.28;5026293;28;97461;-72
2023/06/27 05:03:13;;;;;;;21.88;20.00;;;;;;;22.71;59.42;100036.91;5027949;28;98185;-72
2023/06/27 05:05:38;;;;;;;21.08;19.33;;;;;;;22.82;59.21;100034.13;5030206;28;96877;-72
2023/06/27 05:08:04;;;;;;;22.55;20.45;;;;;;;22.91;59.20;100043.16;5002253;28;98877;-72
2023/06/27 05:10:30;;;;;;;21.33;19.63;;;;;;;22.98;58.70;100044.31;5013292;28;98366;-71
2023/06/27 05:12:56;;;;;;;22.75;20.65;;;;;;;22.94;58.68;100040.22;5018771;28;97175;-72
2023/06/27 05:15:22;;;;;;;20.30;18.80;;;;;;;22.92;58.10;100029.66;5018976;28;96978;-72
2023/06/27 05:17:51;;;;;;;20.92;19.10;;;;;;;23.04;58.40;100033.09;5019630;28;98819;-72
2023/06/27 05:20:17;;;;;;;23.02;21.02;;;;;;;23.04;58.28;100039.28;5019249;28;98372;-72
2023/06/27 05:22:43;;;;;;;23.10;20.77;;;;;;;23.22;57.83;100033.25;5027663;28;96874;-72
2023/06/27 05:25:08;;;;;;;20.85;19.25;;;;;;;23.50;57.71;100044.91;5027207;28;97201;-72
2023/06/27 05:27:34;;;;;;;20.23;18.70;;;;;;;23.53;57.64;100044.63;5013941;28;99168;-72
2023/06/27 05:29:59;;;;;;;22.42;20.65;;;;;;;23.33;57.19;100045.63;5022314;28;98676;-72
2023/06/27 05:32:25;;;;;;;21.55;19.98;;;;;;;23.30;57.19;100046.78;5012797;28;97394;-71
2023/06/27 05:34:50;;;;;;;21.30;19.38;;;;;;;23.24;56.88;100053.53;5011673;28;97062;-72
2023/06/27 05:37:16;;;;;;;20.35;18.75;;;;;;;23.28;56.62;100057.59;5013298;28;98718;-72
2023/06/27 05:39:41;;;;;;;20.30;18.63;;;;;;;23.43;55.88;100041.13;5029113;28;98436;-72
2023/06/27 05:42:07;;;;;;;22.40;20.05;;;;;;;23.59;55.48;100059.28;5028578;28;97012;-72
2023/06/27 05:44:33;;;;;;;21.75;19.65;;;;;;;23.86;55.76;100059.44;5021736;28;96909;-71
2023/06/27 05:46:58;;;;;;;21.00;19.27;;;;;;;23.95;55.76;100063.09;5007536;28;98693;-72
2023/06/27 05:49:24;;;;;;;21.65;19.50;;;;;;;24.00;55.92;100044.75;5021335;28;98342;-71
2023/06/27 05:51:49;;;;;;;22.42;20.13;;;;;;;23.93;55.56;100052.50;5025584;28;97097;-72
2023/06/27 05:54:15;;;;;;;21.92;19.92;;;;;;;24.16;54.64;100063.72;5026085;28;96842;-71
2023/06/27 05:56:40;;;;;;;21.27;19.13;;;;;;;24.14;54.55;100065.72;5026514;28;98783;-72
2023/06/27 05:59:06;;;;;;;24.05;19.00;;;;;;;24.16;53.91;100057.53;5029871;28;98465;-72
2023/06/27 06:01:32;;;;;;;22.13;20.15;;;;;;;24.21;53.65;100059.78;5030143;28;97268;-71
2023/06/27 06:03:57;;;;;;;21.33;19.33;;;;;;;24.25;53.13;100063.84;5013855;28;97367;-72
2023/06/27 06:06:23;;;;;;;22.48;20.30;;;;;;;24.24;53.26;100073.72;5020184;28;98699;-73
2023/06/27 06:08:48;;;;;;;21.80;19.52;;;;;;;24.24;52.71;100078.25;5019939;28;98465;-73
2023/06/27 06:11:14;;;;;;;21.08;19.38;;;;;;;24.24;52.60;100079.09;5023271;28;96751;-74
2023/06/27 06:13:39;;;;;;;21.77;20.02;;;;;;;24.38;51.69;100080.47;5027546;28;96835;-73
2023/06/27 06:16:05;;;;;;;20.65;19.10;;;;;;;24.57;51.68;100080.41;5027251;28;98799;-74
2023/06/27 06:18:30;;;;;;;21.90;18.73;;;;;;;24.90;51.11;100085.31;5026802;28;98318;-74
2023/06/27 06:20:56;;;;;;;21.73;19.23;;;;;;;24.87;50.39;100085.63;5019373;28;97445;-74
2023/06/27 06:23:21;;;;;;;21.58;19.58;;;;;;;24.93;50.45;100098.44;5028202;28;96861;-76
2023/06/27 06:25:47;;;;;;;35.83;32.35;;;;;;;25.15;50.37;100089.16;5027262;28;99142;-76
2023/06/27 06:28:12;;;;;;;20.25;18.85;;;;;;;25.59;50.52;100102.69;5034007;27;98582;-72
2023/06/27 06:30:38;;;;;;;20.10;18.80;;;;;;;26.01;48.60;100097.53;5032011;28;96790;-72
2023/06/27 06:33:03;;;;;;;20.73;18.92;;;;;;;26.31;47.53;100101.56;5022278;28;97402;-76
2023/06/27 06:35:29;;;;;;;19.50;17.90;;;;;;;26.28;46.63;100101.06;5026658;28;98795;-74
2023/06/27 06:37:54;;;;;;;19.10;17.55;;;;;;;26.19;46.27;100101.00;5001917;28;97783;-77
2023/06/27 06:40:20;;;;;;;20.25;18.35;;;;;;;26.55;45.62;100091.97;5024557;28;96918;-81
2023/06/27 06:42:45;;;;;;;19.30;17.63;;;;;;;26.51;44.82;100098.69;5004075;28;96897;-78
2023/06/27 06:45:10;;;;;;;20.45;18.88;;;;;;;26.79;44.12;100091.22;5007978;28;98733;-78
2023/06/27 06:47:36;;;;;;;19.27;17.70;;;;;;;27.30;42.88;100084.00;5011006;28;98492;-79
2023/06/27 06:50:02;;;;;;;18.17;16.45;;;;;;;27.88;41.45;100087.59;5011445;28;96783;-81
2023/06/27 06:52:28;;;;;;;17.15;15.60;;;;;;;28.09;41.66;100087.88;5011392;28;96942;-80
2023/06/27 06:54:53;;;;;;;19.00;17.33;;;;;;;28.83;40.39;100091.25;5010547;28;98939;-81
2023/06/27 06:57:19;;;;;;;19.65;18.10;;;;;;;29.18;39.27;100083.66;5029908;28;98263;-82
2023/06/27 06:59:45;;;;;;;19.65;18.15;;;;;;;30.16;37.30;100082.84;5030030;27;97353;-76
2023/06/27 07:02:10;;;;;;;23.83;18.08;;;;;;;30.75;37.16;100089.28;5019275;28;96819;-75
2023/06/27 07:04:36;;;;;;;19.63;18.05;;;;;;;30.77;36.42;100093.50;5016878;28;98739;-75
2023/06/27 07:07:01;;;;;;;20.58;19.13;;;;;;;30.27;36.89;100089.69;5020955;28;99003;-74
2023/06/27 07:09:28;;;;;;;19.65;18.25;;;;;;;30.56;36.24;100086.16;5025292;28;97148;-74
2023/06/27 07:11:54;;;;;;;19.83;18.42;;;;;;;30.92;35.99;100098.09;4990638;28;97395;-74
2023/06/27 07:14:20;;;;;;;21.17;19.00;;;;;;;30.89;36.03;100096.59;5022512;28;98643;-74
2023/06/27 07:16:45;;;;;;;20.75;19.15;;;;;;;31.27;34.93;100099.97;5018367;28;98313;-73
2023/06/27 07:19:11;;;;;;;20.38;18.38;;;;;;;31.78;34.44;100094.44;5021698;28;96746;-74
2023/06/27 07:21:37;;;;;;;19.58;18.27;;;;;;;32.63;33.24;100097.97;5016834;28;96907;-73
2023/06/27 07:24:04;;;;;;;20.40;18.55;;;;;;;33.35;32.34;100098.47;5026768;28;98746;-73
2023/06/27 07:26:30;;;;;;;21.00;19.38;;;;;;;33.98;31.71;100093.53;5012565;28;98756;-74
2023/06/27 07:28:55;;;;;;;19.27;17.90;;;;;;;33.88;31.20;100100.44;5008294;28;96840;-73
2023/06/27 07:31:21;;;;;;;20.75;19.25;;;;;;;34.50;30.48;100093.66;5004864;28;96952;-73
2023/06/27 07:33:47;;;;;;;20.63;19.02;;;;;;;35.08;29.52;100092.84;4995692;28;99005;-74
2023/06/27 07:36:12;;;;;;;19.88;18.27;;;;;;;35.37;29.41;100078.63;5014482;28;98893;-74
2023/06/27 07:38:38;;;;;;;19.92;18.27;;;;;;;35.56;28.25;100079.56;5014543;28;96808;-74
2023/06/27 07:41:03;;;;;;;20.92;19.33;;;;;;;35.56;28.65;100084.19;5007493;28;96962;-73
2023/06/27 07:43:29;;;;;;;19.45;17.90;;;;;;;35.33;28.50;100082.81;5001659;28;98987;-74
2023/06/27 07:45:55;;;;;;;18.88;17.45;;;;;;;36.36;27.09;100087.00;5012271;28;98353;-74
2023/06/27 07:48:20;;;;;;;20.52;18.80;;;;;;;36.78;26.31;100087.19;5004906;28;97282;-74
2023/06/27 07:50:46;;;;;;;20.33;18.70;;;;;;;34.95;28.04;100084.72;5011049;28;97309;-74
2023/06/27 07:53:11;;;;;;;19.90;18.02;;;;;;;35.75;27.73;100096.84;5009894;28;99185;-69
2023/06/27 07:55:37;;;;;;;19.63;18.17;;;;;;;37.29;25.53;100093.25;5005950;28;97411;-74
2023/06/27 07:58:02;;;;;;;19.65;18.42;;;;;;;38.10;24.66;100086.28;5012111;28;96988;-74
2023/06/27 08:00:28;;;;;;;20.20;18.67;;;;;;;38.59;24.33;100097.00;5023069;28;96758;-74
2023/06/27 08:02:54;;;;;;;19.25;17.88;;;;;;;37.71;24.62;100091.38;5002618;28;99018;-74
